sensor_id;sensor_type;location;lat;lon;timestamp;pressure;altitude;pressure_sealevel;temperature;humidity
77889;BME280;67082;41.704;44.768;2023-08-20T00:01:25;95707.91;;;24.00;54.31
77889;BME280;67082;41.704;44.768;2023-08-20T00:03:55;95695.59;;;23.98;54.59
77889;BME280;67082;41.704;44.768;2023-08-20T00:06:24;95692.78;;;23.98;54.49
77889;BME280;67082;41.704;44.768;2023-08-20T00:08:52;95697.34;;;24.01;54.96
77889;BME280;67082;41.704;44.768;2023-08-20T00:11:20;95701.06;;;23.96;55.02
77889;BME280;67082;41.704;44.768;2023-08-20T00:13:48;95697.34;;;24.01;55.18
77889;BME280;67082;41.704;44.768;2023-08-20T00:16:17;95697.06;;;24.04;54.84
77889;BME280;67082;41.704;44.768;2023-08-20T00:18:45;95707.47;;;23.96;55.62
77889;BME280;67082;41.704;44.768;2023-08-20T00:21:14;95697.91;;;23.99;55.48
77889;BME280;67082;41.704;44.768;2023-08-20T00:23:42;95706.63;;;24.01;55.22
77889;BME280;67082;41.704;44.768;2023-08-20T00:26:10;95704.88;;;23.98;55.19
77889;BME280;67082;41.704;44.768;2023-08-20T00:28:40;95702.72;;;24.04;55.54
77889;BME280;67082;41.704;44.768;2023-08-20T00:31:08;95699.22;;;23.98;55.60
77889;BME280;67082;41.704;44.768;2023-08-20T00:33:37;95707.47;;;23.96;55.13
77889;BME280;67082;41.704;44.768;2023-08-20T00:36:05;95710.28;;;23.96;55.33
77889;BME280;67082;41.704;44.768;2023-08-20T00:38:33;95716.81;;;23.91;55.26
77889;BME280;67082;41.704;44.768;2023-08-20T00:41:01;95708.88;;;23.90;55.40
77889;BME280;67082;41.704;44.768;2023-08-20T00:43:29;95712.66;;;23.92;55.15
77889;BME280;67082;41.704;44.768;2023-08-20T00:45:59;95714.22;;;23.93;55.27
77889;BME280;67082;41.704;44.768;2023-08-20T00:48:27;95718.03;;;23.96;55.07
77889;BME280;67082;41.704;44.768;2023-08-20T00:50:55;95709.41;;;23.88;55.10
77889;BME280;67082;41.704;44.768;2023-08-20T00:53:23;95713.53;;;23.87;55.39
77889;BME280;67082;41.704;44.768;2023-08-20T00:55:55;95720.03;;;23.82;54.88
77889;BME280;67082;41.704;44.768;2023-08-20T00:58:23;95716.94;;;23.80;54.96
77889;BME280;67082;41.704;44.768;2023-08-20T01:00:52;95706.72;;;23.77;54.79
77889;BME280;67082;41.704;44.768;2023-08-20T01:03:20;95712.69;;;23.74;55.23
77889;BME280;67082;41.704;44.768;2023-08-20T01:05:53;95711.91;;;23.73;54.63
77889;BME280;67082;41.704;44.768;2023-08-20T01:08:37;95704.53;;;23.70;55.10
77889;BME280;67082;41.704;44.768;2023-08-20T01:11:17;95712.44;;;23.72;55.09
77889;BME280;67082;41.704;44.768;2023-08-20T01:13:47;95703.28;;;23.66;55.21
77889;BME280;67082;41.704;44.768;2023-08-20T01:16:15;95701.22;;;23.66;55.05
77889;BME280;67082;41.704;44.768;2023-08-20T01:18:43;95705.81;;;23.69;55.03
77889;BME280;67082;41.704;44.768;2023-08-20T01:21:23;95701.00;;;23.64;55.08
77889;BME280;67082;41.704;44.768;2023-08-20T01:29:25;95708.41;;;23.67;54.98
77889;BME280;67082;41.704;44.768;2023-08-20T01:31:54;95711.25;;;23.67;55.03
77889;BME280;67082;41.704;44.768;2023-08-20T01:34:23;95712.09;;;23.62;55.06
77889;BME280;67082;41.704;44.768;2023-08-20T01:36:51;95713.81;;;23.52;55.59
77889;BME280;67082;41.704;44.768;2023-08-20T01:39:19;95714.66;;;23.47;55.38
77889;BME280;67082;41.704;44.768;2023-08-20T01:41:47;95719.84;;;23.43;55.98
77889;BME280;67082;41.704;44.768;2023-08-20T01:44:16;95712.56;;;23.48;56.12
77889;BME280;67082;41.704;44.768;2023-08-20T01:46:44;95717.31;;;23.40;56.35
77889;BME280;67082;41.704;44.768;2023-08-20T01:49:12;95715.31;;;23.35;56.46
77889;BME280;67082;41.704;44.768;2023-08-20T01:51:40;95710.59;;;23.24;56.51
77889;BME280;67082;41.704;44.768;2023-08-20T01:54:08;95716.84;;;23.17;57.11
77889;BME280;67082;41.704;44.768;2023-08-20T01:56:36;95717.47;;;23.29;56.86
77889;BME280;67082;41.704;44.768;2023-08-20T01:59:04;95721.28;;;23.31;56.75
77889;BME280;67082;41.704;44.768;2023-08-20T02:01:32;95716.94;;;23.30;56.63
77889;BME280;67082;41.704;44.768;2023-08-20T02:04:00;95733.66;;;23.28;56.79
77889;BME280;67082;41.704;44.768;2023-08-20T02:06:28;95723.91;;;23.29;56.54
77889;BME280;67082;41.704;44.768;2023-08-20T02:08:57;95725.72;;;23.27;56.44
77889;BME280;67082;41.704;44.768;2023-08-20T02:11:25;95732.97;;;23.22;56.85
77889;BME280;67082;41.704;44.768;2023-08-20T02:13:54;95730.97;;;23.17;57.11
77889;BME280;67082;41.704;44.768;2023-08-20T02:16:21;95731.25;;;23.14;57.13
77889;BME280;67082;41.704;44.768;2023-08-20T02:18:50;95730.25;;;23.11;57.12
77889;BME280;67082;41.704;44.768;2023-08-20T02:21:18;95723.84;;;23.11;57.21
77889;BME280;67082;41.704;44.768;2023-08-20T02:23:46;95723.84;;;23.11;57.23
77889;BME280;67082;41.704;44.768;2023-08-20T02:26:14;95723.84;;;23.11;57.60
77889;BME280;67082;41.704;44.768;2023-08-20T02:28:43;95728.44;;;23.14;57.60
77889;BME280;67082;41.704;44.768;2023-08-20T02:31:10;95729.41;;;23.16;57.36
77889;BME280;67082;41.704;44.768;2023-08-20T02:33:39;95731.66;;;23.23;57.09
77889;BME280;67082;41.704;44.768;2023-08-20T02:36:07;95734.97;;;23.27;56.81
77889;BME280;67082;41.704;44.768;2023-08-20T02:38:35;95728.47;;;23.32;56.73
77889;BME280;67082;41.704;44.768;2023-08-20T02:41:04;95728.09;;;23.41;56.24
77889;BME280;67082;41.704;44.768;2023-08-20T02:43:32;95736.97;;;23.51;56.04
77889;BME280;67082;41.704;44.768;2023-08-20T02:46:01;95733.19;;;23.61;56.16
77889;BME280;67082;41.704;44.768;2023-08-20T02:48:29;95737.25;;;23.66;55.81
77889;BME280;67082;41.704;44.768;2023-08-20T02:50:57;95738.31;;;23.81;55.27
77889;BME280;67082;41.704;44.768;2023-08-20T02:53:26;95734.56;;;23.92;55.34
77889;BME280;67082;41.704;44.768;2023-08-20T02:55:54;95740.81;;;24.03;55.20
77889;BME280;67082;41.704;44.768;2023-08-20T02:58:22;95740.19;;;24.10;54.88
77889;BME280;67082;41.704;44.768;2023-08-20T03:00:50;95735.19;;;24.16;54.70
77889;BME280;67082;41.704;44.768;2023-08-20T03:03:19;95749.47;;;24.24;54.49
77889;BME280;67082;41.704;44.768;2023-08-20T03:05:47;95740.25;;;24.36;53.73
77889;BME280;67082;41.704;44.768;2023-08-20T03:08:15;95748.22;;;24.38;53.97
77889;BME280;67082;41.704;44.768;2023-08-20T03:10:43;95751.56;;;24.36;53.71
77889;BME280;67082;41.704;44.768;2023-08-20T03:13:12;95744.09;;;24.52;53.71
77889;BME280;67082;41.704;44.768;2023-08-20T03:15:40;95740.72;;;24.53;53.50
77889;BME280;67082;41.704;44.768;2023-08-20T03:18:08;95742.06;;;24.65;53.68
77889;BME280;67082;41.704;44.768;2023-08-20T03:20:36;95742.72;;;24.71;53.00
77889;BME280;67082;41.704;44.768;2023-08-20T03:23:05;95743.25;;;24.70;53.03
77889;BME280;67082;41.704;44.768;2023-08-20T03:25:33;95742.50;;;24.82;52.84
77889;BME280;67082;41.704;44.768;2023-08-20T03:28:01;95747.09;;;24.85;52.51
77889;BME280;67082;41.704;44.768;2023-08-20T03:30:29;95733.59;;;24.91;52.38
77889;BME280;67082;41.704;44.768;2023-08-20T03:32:57;95734.91;;;24.90;52.15
77889;BME280;67082;41.704;44.768;2023-08-20T03:35:25;95735.97;;;24.87;52.10
77889;BME280;67082;41.704;44.768;2023-08-20T03:37:54;95739.25;;;24.91;52.50
77889;BME280;67082;41.704;44.768;2023-08-20T03:40:22;95738.59;;;24.85;52.53
77889;BME280;67082;41.704;44.768;2023-08-20T03:42:50;95740.13;;;24.86;52.42
77889;BME280;67082;41.704;44.768;2023-08-20T03:45:18;95738.81;;;24.87;51.88
77889;BME280;67082;41.704;44.768;2023-08-20T03:47:47;95739.47;;;24.93;52.08
77889;BME280;67082;41.704;44.768;2023-08-20T03:50:17;95742.09;;;25.04;51.73
77889;BME280;67082;41.704;44.768;2023-08-20T03:52:45;95746.66;;;25.07;51.90
77889;BME280;67082;41.704;44.768;2023-08-20T03:55:13;95742.94;;;25.12;52.01
77889;BME280;67082;41.704;44.768;2023-08-20T03:57:41;95743.81;;;25.20;51.57
77889;BME280;67082;41.704;44.768;2023-08-20T04:00:10;95743.38;;;25.16;51.87
77889;BME280;67082;41.704;44.768;2023-08-20T04:02:43;95748.38;;;25.23;51.74
77889;BME280;67082;41.704;44.768;2023-08-20T04:05:11;95746.56;;;25.13;51.29
77889;BME280;67082;41.704;44.768;2023-08-20T04:07:39;95742.41;;;25.14;51.61
77889;BME280;67082;41.704;44.768;2023-08-20T04:10:08;95739.66;;;25.21;51.35
77889;BME280;67082;41.704;44.768;2023-08-20T04:12:36;95738.81;;;25.26;51.05
77889;BME280;67082;41.704;44.768;2023-08-20T04:15:04;95743.03;;;25.20;51.45
77889;BME280;67082;41.704;44.768;2023-08-20T04:17:33;95745.25;;;25.27;51.27
77889;BME280;67082;41.704;44.768;2023-08-20T04:20:02;95738.81;;;25.26;50.65
77889;BME280;67082;41.704;44.768;2023-08-20T04:22:32;95730.72;;;25.30;50.72
77889;BME280;67082;41.704;44.768;2023-08-20T04:25:00;95740.53;;;25.16;51.34
77889;BME280;67082;41.704;44.768;2023-08-20T04:27:33;95743.38;;;25.29;50.74
77889;BME280;67082;41.704;44.768;2023-08-20T04:30:02;95740.56;;;25.29;50.71
77889;BME280;67082;41.704;44.768;2023-08-20T04:32:30;95741.75;;;25.34;50.95
77889;BME280;67082;41.704;44.768;2023-08-20T04:34:59;95737.50;;;25.27;50.60
77889;BME280;67082;41.704;44.768;2023-08-20T04:37:29;95735.13;;;25.31;50.79
77889;BME280;67082;41.704;44.768;2023-08-20T04:39:57;95734.44;;;25.38;50.25
77889;BME280;67082;41.704;44.768;2023-08-20T04:42:26;95727.78;;;25.36;49.81
77889;BME280;67082;41.704;44.768;2023-08-20T04:44:55;95727.13;;;25.30;49.97
77889;BME280;67082;41.704;44.768;2023-08-20T04:47:25;95729.00;;;25.14;50.13
77889;BME280;67082;41.704;44.768;2023-08-20T04:49:54;95725.28;;;25.32;50.42
77889;BME280;67082;41.704;44.768;2023-08-20T04:52:24;95723.19;;;25.20;50.42
77889;BME280;67082;41.704;44.768;2023-08-20T04:54:52;95727.47;;;25.26;50.18
77889;BME280;67082;41.704;44.768;2023-08-20T04:57:22;95724.16;;;25.22;49.28
77889;BME280;67082;41.704;44.768;2023-08-20T04:59:51;95727.25;;;25.24;49.75
77889;BME280;67082;41.704;44.768;2023-08-20T05:02:37;95723.53;;;25.29;50.20
77889;BME280;67082;41.704;44.768;2023-08-20T05:05:06;95723.31;;;25.27;49.32
77889;BME280;67082;41.704;44.768;2023-08-20T05:07:35;95719.38;;;25.30;49.31
77889;BME280;67082;41.704;44.768;2023-08-20T05:10:03;95719.38;;;25.17;49.34
77889;BME280;67082;41.704;44.768;2023-08-20T05:12:31;95721.03;;;25.26;49.64
77889;BME280;67082;41.704;44.768;2023-08-20T05:15:00;95727.59;;;25.34;49.01
77889;BME280;67082;41.704;44.768;2023-08-20T05:17:29;95718.28;;;25.33;48.55
77889;BME280;67082;41.704;44.768;2023-08-20T05:19:57;95718.63;;;25.30;48.69
77889;BME280;67082;41.704;44.768;2023-08-20T05:22:26;95714.91;;;25.35;48.56
77889;BME280;67082;41.704;44.768;2023-08-20T05:24:54;95710.56;;;25.34;48.56
77889;BME280;67082;41.704;44.768;2023-08-20T05:27:22;95710.97;;;25.38;48.69
77889;BME280;67082;41.704;44.768;2023-08-20T05:29:51;95715.41;;;25.46;48.79
77889;BME280;67082;41.704;44.768;2023-08-20T05:32:20;95711.50;;;25.49;48.56
77889;BME280;67082;41.704;44.768;2023-08-20T05:34:48;95714.00;;;25.53;48.63
77889;BME280;67082;41.704;44.768;2023-08-20T05:37:17;95705.28;;;25.51;48.01
77889;BME280;67082;41.704;44.768;2023-08-20T05:39:45;95714.75;;;25.53;48.11
77889;BME280;67082;41.704;44.768;2023-08-20T05:42:14;95711.69;;;25.51;48.51
77889;BME280;67082;41.704;44.768;2023-08-20T05:44:47;95702.31;;;25.56;47.36
77889;BME280;67082;41.704;44.768;2023-08-20T05:47:20;95701.63;;;25.63;47.17
77889;BME280;67082;41.704;44.768;2023-08-20T05:49:49;95704.19;;;25.74;46.76
77889;BME280;67082;41.704;44.768;2023-08-20T05:52:17;95699.16;;;25.80;45.95
77889;BME280;67082;41.704;44.768;2023-08-20T05:54:45;95699.59;;;25.84;46.37
77889;BME280;67082;41.704;44.768;2023-08-20T05:57:14;95699.94;;;25.81;45.74
77889;BME280;67082;41.704;44.768;2023-08-20T05:59:43;95703.75;;;25.83;45.66
77889;BME280;67082;41.704;44.768;2023-08-20T06:02:16;95701.31;;;25.87;45.54
77889;BME280;67082;41.704;44.768;2023-08-20T06:04:45;95699.78;;;25.86;45.69
77889;BME280;67082;41.704;44.768;2023-08-20T06:07:13;95697.16;;;25.88;45.77
77889;BME280;67082;41.704;44.768;2023-08-20T06:09:41;95699.13;;;25.93;45.64
77889;BME280;67082;41.704;44.768;2023-08-20T06:12:09;95698.66;;;26.02;45.47
77889;BME280;67082;41.704;44.768;2023-08-20T06:14:38;95692.50;;;26.11;45.13
77889;BME280;67082;41.704;44.768;2023-08-20T06:17:06;95690.28;;;26.17;44.80
77889;BME280;67082;41.704;44.768;2023-08-20T06:19:34;95680.63;;;26.20;44.50
77889;BME280;67082;41.704;44.768;2023-08-20T06:22:04;95692.41;;;26.24;44.65
77889;BME280;67082;41.704;44.768;2023-08-20T06:24:31;95687.97;;;26.36;44.08
77889;BME280;67082;41.704;44.768;2023-08-20T06:27:00;95689.47;;;26.37;43.42
77889;BME280;67082;41.704;44.768;2023-08-20T06:29:28;95682.34;;;26.44;43.88
77889;BME280;67082;41.704;44.768;2023-08-20T06:31:57;95680.88;;;26.50;43.75
77889;BME280;67082;41.704;44.768;2023-08-20T06:34:25;95679.75;;;26.53;43.59
77889;BME280;67082;41.704;44.768;2023-08-20T06:36:53;95681.00;;;26.65;43.46
77889;BME280;67082;41.704;44.768;2023-08-20T06:39:21;95674.59;;;26.72;42.41
77889;BME280;67082;41.704;44.768;2023-08-20T06:41:50;95683.31;;;26.74;41.87
77889;BME280;67082;41.704;44.768;2023-08-20T06:44:20;95675.03;;;26.76;42.20
77889;BME280;67082;41.704;44.768;2023-08-20T06:46:49;95678.28;;;26.80;41.99
77889;BME280;67082;41.704;44.768;2023-08-20T06:49:16;95667.13;;;26.90;41.84
77889;BME280;67082;41.704;44.768;2023-08-20T06:51:45;95677.75;;;26.89;41.85
77889;BME280;67082;41.704;44.768;2023-08-20T06:54:14;95669.03;;;26.87;41.80
77889;BME280;67082;41.704;44.768;2023-08-20T06:56:44;95669.06;;;26.95;41.97
77889;BME280;67082;41.704;44.768;2023-08-20T06:59:16;95667.19;;;27.05;41.68
77889;BME280;67082;41.704;44.768;2023-08-20T07:01:45;95658.28;;;27.01;41.09
77889;BME280;67082;41.704;44.768;2023-08-20T07:04:13;95658.66;;;27.05;41.49
77889;BME280;67082;41.704;44.768;2023-08-20T07:06:41;95650.72;;;27.11;41.77
77889;BME280;67082;41.704;44.768;2023-08-20T07:09:09;95654.75;;;27.15;41.21
77889;BME280;67082;41.704;44.768;2023-08-20T07:11:38;95642.25;;;27.18;41.46
77889;BME280;67082;41.704;44.768;2023-08-20T07:14:07;95639.25;;;27.24;41.18
77889;BME280;67082;41.704;44.768;2023-08-20T07:16:36;95648.00;;;27.26;41.14
77889;BME280;67082;41.704;44.768;2023-08-20T07:19:04;95638.53;;;27.31;41.25
77889;BME280;67082;41.704;44.768;2023-08-20T07:21:33;95639.66;;;27.35;40.78
77889;BME280;67082;41.704;44.768;2023-08-20T07:24:01;95637.41;;;27.41;40.65
77889;BME280;67082;41.704;44.768;2023-08-20T07:26:29;95643.50;;;27.45;40.43
77889;BME280;67082;41.704;44.768;2023-08-20T07:28:57;95632.88;;;27.53;40.32
77889;BME280;67082;41.704;44.768;2023-08-20T07:31:27;95635.94;;;27.55;40.69
77889;BME280;67082;41.704;44.768;2023-08-20T07:33:56;95636.31;;;27.59;40.43
77889;BME280;67082;41.704;44.768;2023-08-20T07:36:31;95625.69;;;27.60;40.89
77889;BME280;67082;41.704;44.768;2023-08-20T07:39:00;95630.25;;;27.63;40.42
77889;BME280;67082;41.704;44.768;2023-08-20T07:41:30;95630.25;;;27.63;40.70
77889;BME280;67082;41.704;44.768;2023-08-20T07:43:58;95626.09;;;27.64;39.97
77889;BME280;67082;41.704;44.768;2023-08-20T07:46:26;95617.38;;;27.69;40.33
77889;BME280;67082;41.704;44.768;2023-08-20T07:48:54;95613.22;;;27.78;40.18
77889;BME280;67082;41.704;44.768;2023-08-20T07:51:22;95614.38;;;27.82;39.55
77889;BME280;67082;41.704;44.768;2023-08-20T07:53:50;95607.91;;;27.89;39.16
77889;BME280;67082;41.704;44.768;2023-08-20T07:56:19;95610.59;;;27.95;39.43
77889;BME280;67082;41.704;44.768;2023-08-20T07:58:47;95603.75;;;27.98;39.06
77889;BME280;67082;41.704;44.768;2023-08-20T08:01:15;95595.97;;;27.98;39.12
77889;BME280;67082;41.704;44.768;2023-08-20T08:03:44;95599.56;;;28.06;39.53
77889;BME280;67082;41.704;44.768;2023-08-20T08:06:13;95599.94;;;28.02;39.44
77889;BME280;67082;41.704;44.768;2023-08-20T08:08:42;95600.13;;;28.12;39.38
77889;BME280;67082;41.704;44.768;2023-08-20T08:11:15;95595.03;;;28.18;38.44
77889;BME280;67082;41.704;44.768;2023-08-20T08:13:43;95589.13;;;28.31;38.47
77889;BME280;67082;41.704;44.768;2023-08-20T08:16:12;95582.09;;;28.32;37.55
77889;BME280;67082;41.704;44.768;2023-08-20T08:18:40;95593.88;;;28.36;36.85
77889;BME280;67082;41.704;44.768;2023-08-20T08:21:08;95580.56;;;28.31;37.20
77889;BME280;67082;41.704;44.768;2023-08-20T08:23:36;95581.91;;;28.30;37.48
77889;BME280;67082;41.704;44.768;2023-08-20T08:26:04;95580.00;;;28.33;37.85
77889;BME280;67082;41.704;44.768;2023-08-20T08:28:32;95584.53;;;28.35;37.92
77889;BME280;67082;41.704;44.768;2023-08-20T08:31:01;95569.34;;;28.33;37.42
77889;BME280;67082;41.704;44.768;2023-08-20T08:33:33;95576.19;;;28.45;36.92
77889;BME280;67082;41.704;44.768;2023-08-20T08:36:01;95573.16;;;28.51;37.47
77889;BME280;67082;41.704;44.768;2023-08-20T08:38:30;95568.00;;;28.49;36.52
77889;BME280;67082;41.704;44.768;2023-08-20T08:41:00;95573.72;;;28.57;36.84
77889;BME280;67082;41.704;44.768;2023-08-20T08:46:18;95570.66;;;28.54;35.94
77889;BME280;67082;41.704;44.768;2023-08-20T08:48:48;95561.53;;;28.56;35.89
77889;BME280;67082;41.704;44.768;2023-08-20T08:51:16;95563.41;;;28.61;36.42
77889;BME280;67082;41.704;44.768;2023-08-20T08:53:46;95568.50;;;28.77;36.27
77889;BME280;67082;41.704;44.768;2023-08-20T08:56:14;95559.53;;;28.81;35.78
77889;BME280;67082;41.704;44.768;2023-08-20T08:58:43;95565.25;;;28.81;35.79
77889;BME280;67082;41.704;44.768;2023-08-20T09:01:11;95559.75;;;28.83;35.08
77889;BME280;67082;41.704;44.768;2023-08-20T09:03:39;95554.97;;;28.85;35.96
77889;BME280;67082;41.704;44.768;2023-08-20T09:06:08;95556.88;;;28.90;36.46
77889;BME280;67082;41.704;44.768;2023-08-20T09:08:38;95553.25;;;28.82;36.58
77889;BME280;67082;41.704;44.768;2023-08-20T09:11:06;95542.81;;;28.85;36.22
77889;BME280;67082;41.704;44.768;2023-08-20T09:13:36;95546.59;;;28.87;35.87
77889;BME280;67082;41.704;44.768;2023-08-20T09:16:06;95540.50;;;28.98;35.29
77889;BME280;67082;41.704;44.768;2023-08-20T09:18:38;95555.88;;;29.03;35.56
77889;BME280;67082;41.704;44.768;2023-08-20T09:21:09;95538.56;;;29.01;35.29
77889;BME280;67082;41.704;44.768;2023-08-20T09:23:38;95535.72;;;29.01;35.03
77889;BME280;67082;41.704;44.768;2023-08-20T09:26:07;95537.41;;;29.04;34.19
77889;BME280;67082;41.704;44.768;2023-08-20T09:28:42;95531.69;;;29.04;33.92
77889;BME280;67082;41.704;44.768;2023-08-20T09:31:12;95535.50;;;29.06;34.08
77889;BME280;67082;41.704;44.768;2023-08-20T09:33:51;95536.97;;;29.15;33.38
77889;BME280;67082;41.704;44.768;2023-08-20T09:36:32;95525.94;;;29.19;34.17
77889;BME280;67082;41.704;44.768;2023-08-20T09:39:01;95527.09;;;29.16;33.76
77889;BME280;67082;41.704;44.768;2023-08-20T09:41:30;95523.72;;;29.10;33.07
77889;BME280;67082;41.704;44.768;2023-08-20T09:43:59;95520.25;;;29.11;34.43
77889;BME280;67082;41.704;44.768;2023-08-20T09:46:31;95527.81;;;29.24;34.20
77889;BME280;67082;41.704;44.768;2023-08-20T09:49:01;95523.97;;;29.29;34.46
77889;BME280;67082;41.704;44.768;2023-08-20T09:51:33;95516.38;;;29.24;34.97
77889;BME280;67082;41.704;44.768;2023-08-20T09:57:06;95509.13;;;29.30;34.64
77889;BME280;67082;41.704;44.768;2023-08-20T09:59:35;95505.88;;;29.34;35.45
77889;BME280;67082;41.704;44.768;2023-08-20T10:02:04;95506.38;;;29.40;35.59
77889;BME280;67082;41.704;44.768;2023-08-20T10:04:32;95508.44;;;29.47;34.91
77889;BME280;67082;41.704;44.768;2023-08-20T10:07:00;95505.34;;;29.52;33.87
77889;BME280;67082;41.704;44.768;2023-08-20T10:09:31;95501.38;;;29.48;33.61
77889;BME280;67082;41.704;44.768;2023-08-20T10:12:00;95503.69;;;29.42;33.69
77889;BME280;67082;41.704;44.768;2023-08-20T10:14:29;95494.50;;;29.51;33.27
77889;BME280;67082;41.704;44.768;2023-08-20T10:16:57;95482.38;;;29.43;33.49
77889;BME280;67082;41.704;44.768;2023-08-20T10:19:25;95490.31;;;29.52;33.95
77889;BME280;67082;41.704;44.768;2023-08-20T10:21:56;95487.19;;;29.65;33.42
77889;BME280;67082;41.704;44.768;2023-08-20T10:24:25;95484.91;;;29.63;33.61
77889;BME280;67082;41.704;44.768;2023-08-20T10:27:12;95474.59;;;29.68;33.67
77889;BME280;67082;41.704;44.768;2023-08-20T10:29:40;95474.41;;;29.66;33.53
77889;BME280;67082;41.704;44.768;2023-08-20T10:32:11;95475.75;;;29.65;33.74
77889;BME280;67082;41.704;44.768;2023-08-20T10:34:42;95469.88;;;29.63;34.06
77889;BME280;67082;41.704;44.768;2023-08-20T10:37:15;95477.56;;;29.77;35.06
77889;BME280;67082;41.704;44.768;2023-08-20T10:39:53;95472.59;;;29.78;34.44
77889;BME280;67082;41.704;44.768;2023-08-20T10:42:26;95464.03;;;29.78;34.31
77889;BME280;67082;41.704;44.768;2023-08-20T10:47:55;95467.59;;;29.86;34.40
77889;BME280;67082;41.704;44.768;2023-08-20T10:50:29;95460.19;;;29.83;33.85
77889;BME280;67082;41.704;44.768;2023-08-20T10:52:57;95462.88;;;29.81;34.03
77889;BME280;67082;41.704;44.768;2023-08-20T10:55:25;95467.22;;;29.82;33.90
77889;BME280;67082;41.704;44.768;2023-08-20T10:57:56;95460.00;;;29.81;34.00
77889;BME280;67082;41.704;44.768;2023-08-20T11:00:25;95449.75;;;29.78;33.89
77889;BME280;67082;41.704;44.768;2023-08-20T11:03:02;95446.09;;;29.85;33.98
77889;BME280;67082;41.704;44.768;2023-08-20T11:05:31;95449.25;;;29.89;34.62
77889;BME280;67082;41.704;44.768;2023-08-20T11:08:00;95440.03;;;29.98;34.27
77889;BME280;67082;41.704;44.768;2023-08-20T11:10:31;95447.25;;;29.99;33.25
77889;BME280;67082;41.704;44.768;2023-08-20T11:12:59;95435.19;;;30.08;33.01
77889;BME280;67082;41.704;44.768;2023-08-20T11:15:31;95430.63;;;30.05;33.30
77889;BME280;67082;41.704;44.768;2023-08-20T11:17:59;95439.97;;;30.05;33.33
77889;BME280;67082;41.704;44.768;2023-08-20T11:20:27;95432.13;;;30.06;33.27
77889;BME280;67082;41.704;44.768;2023-08-20T11:22:55;95433.00;;;30.16;33.32
77889;BME280;67082;41.704;44.768;2023-08-20T11:25:23;95433.34;;;30.20;33.07
77889;BME280;67082;41.704;44.768;2023-08-20T11:27:51;95427.28;;;30.16;32.88
77889;BME280;67082;41.704;44.768;2023-08-20T11:30:20;95429.66;;;30.10;33.43
77889;BME280;67082;41.704;44.768;2023-08-20T11:32:48;95430.00;;;30.14;32.80
77889;BME280;67082;41.704;44.768;2023-08-20T11:35:21;95432.84;;;30.14;33.08
77889;BME280;67082;41.704;44.768;2023-08-20T11:37:52;95421.56;;;30.16;33.05
77889;BME280;67082;41.704;44.768;2023-08-20T11:40:21;95416.22;;;30.20;32.82
77889;BME280;67082;41.704;44.768;2023-08-20T11:42:50;95424.00;;;30.19;33.18
77889;BME280;67082;41.704;44.768;2023-08-20T11:45:18;95421.00;;;30.17;33.45
77889;BME280;67082;41.704;44.768;2023-08-20T11:47:46;95414.09;;;30.20;32.42
77889;BME280;67082;41.704;44.768;2023-08-20T11:50:14;95418.22;;;30.27;32.49
77889;BME280;67082;41.704;44.768;2023-08-20T11:52:42;95418.22;;;30.27;32.96
77889;BME280;67082;41.704;44.768;2023-08-20T11:55:10;95415.28;;;30.34;32.49
77889;BME280;67082;41.704;44.768;2023-08-20T11:57:39;95418.22;;;30.44;32.79
77889;BME280;67082;41.704;44.768;2023-08-20T12:00:07;95410.28;;;30.35;32.73
77889;BME280;67082;41.704;44.768;2023-08-20T12:02:43;95408.78;;;30.34;33.19
77889;BME280;67082;41.704;44.768;2023-08-20T12:05:11;95418.28;;;30.36;32.62
77889;BME280;67082;41.704;44.768;2023-08-20T12:07:40;95411.81;;;30.36;32.57
77889;BME280;67082;41.704;44.768;2023-08-20T12:10:20;95401.72;;;30.35;32.08
77889;BME280;67082;41.704;44.768;2023-08-20T12:12:50;95404.16;;;30.38;32.11
77889;BME280;67082;41.704;44.768;2023-08-20T12:15:18;95405.84;;;30.41;32.44
77889;BME280;67082;41.704;44.768;2023-08-20T12:18:04;95406.75;;;30.44;32.15
77889;BME280;67082;41.704;44.768;2023-08-20T12:20:35;95411.13;;;30.45;32.18
77889;BME280;67082;41.704;44.768;2023-08-20T12:23:05;95394.56;;;30.43;31.89
77889;BME280;67082;41.704;44.768;2023-08-20T12:25:35;95396.34;;;30.39;32.30
77889;BME280;67082;41.704;44.768;2023-08-20T12:28:04;95396.19;;;30.37;32.44
77889;BME280;67082;41.704;44.768;2023-08-20T12:30:33;95388.84;;;30.43;31.82
77889;BME280;67082;41.704;44.768;2023-08-20T12:33:06;95390.34;;;30.44;31.78
77889;BME280;67082;41.704;44.768;2023-08-20T12:35:35;95393.47;;;30.39;31.63
77889;BME280;67082;41.704;44.768;2023-08-20T12:38:04;95380.84;;;30.42;32.08
77889;BME280;67082;41.704;44.768;2023-08-20T12:40:31;95386.16;;;30.45;31.59
77889;BME280;67082;41.704;44.768;2023-08-20T12:43:00;95388.41;;;30.47;32.04
77889;BME280;67082;41.704;44.768;2023-08-20T12:45:28;95385.41;;;30.45;32.04
77889;BME280;67082;41.704;44.768;2023-08-20T12:47:57;95381.19;;;30.46;32.39
77889;BME280;67082;41.704;44.768;2023-08-20T12:50:28;95376.66;;;30.43;32.77
77889;BME280;67082;41.704;44.768;2023-08-20T12:52:57;95370.94;;;30.43;32.73
77889;BME280;67082;41.704;44.768;2023-08-20T12:55:25;95370.94;;;30.43;31.54
77889;BME280;67082;41.704;44.768;2023-08-20T12:57:58;95376.97;;;30.47;31.32
77889;BME280;67082;41.704;44.768;2023-08-20T13:00:26;95364.94;;;30.48;31.23
77889;BME280;67082;41.704;44.768;2023-08-20T13:02:55;95380.16;;;30.51;31.30
77889;BME280;67082;41.704;44.768;2023-08-20T13:05:24;95384.09;;;30.55;31.88
77889;BME280;67082;41.704;44.768;2023-08-20T13:07:53;95378.38;;;30.55;31.53
77889;BME280;67082;41.704;44.768;2023-08-20T13:10:22;95374.78;;;30.55;32.05
77889;BME280;67082;41.704;44.768;2023-08-20T13:12:54;95371.75;;;30.53;31.75
77889;BME280;67082;41.704;44.768;2023-08-20T13:15:26;95372.06;;;30.57;32.13